Carpenter, Mississippi
Current Conditions -  °F | °C
As of 4:15 PM on Monday 20 Oct 2014 (Local Time) from KVKS Reporting Station
Clear Clear  
Wind Chill: 23°   Ceiling: Unl
Heat Index: 23°   Visibility: 10mi
Dew Point:   Wind: 6mph
Humidity: 41%   Direction: 350°N
Pressure: 30.03"   Gusts: NA
Location:  31.955°N, 90.8237°W
Report Text: KVKS 202115Z AUTO 35005KT 10SM CLR 23/09 A3003 RMK A01
Loading
Personal Weather Stations






























Interactive Weather Map
Tropical Storm Tracking
New forecast layout! Learn more

10-Day Weather Forecast

Advertisements
Track Severe Weather on mobile